createdAt,value
2022-12-24T19:48:44.497Z,7.44
2022-12-24T19:49:44.108Z,7.50
2022-12-24T19:50:44.097Z,7.53
2022-12-24T19:51:43.979Z,7.55
2022-12-24T19:52:43.860Z,7.50
2022-12-24T19:53:43.872Z,7.47
2022-12-24T19:54:43.742Z,7.50
2022-12-24T19:55:43.743Z,7.53
2022-12-24T19:56:43.751Z,7.55
2022-12-24T19:57:43.636Z,7.53
2022-12-24T19:58:43.625Z,7.53
2022-12-24T19:59:43.990Z,7.59
2022-12-24T20:00:43.653Z,7.58
2022-12-24T20:01:43.866Z,7.56
2022-12-24T20:02:43.814Z,7.61
2022-12-24T20:03:43.547Z,7.66
2022-12-24T20:04:43.544Z,7.59
2022-12-24T20:05:43.399Z,7.61
2022-12-24T20:06:43.393Z,7.74
2022-12-24T20:07:43.397Z,7.80
2022-12-24T20:08:43.282Z,7.77
2022-12-24T20:09:43.036Z,7.75
2022-12-24T20:10:42.929Z,7.78
2022-12-24T20:11:42.945Z,7.77
2022-12-24T20:12:42.921Z,7.75
2022-12-24T20:13:42.807Z,7.78
2022-12-24T20:14:42.929Z,7.85
2022-12-24T20:15:42.698Z,7.90
2022-12-24T20:16:42.751Z,7.87
2022-12-24T20:17:42.689Z,7.84
2022-12-24T20:18:42.570Z,7.90
2022-12-24T20:19:42.569Z,7.95
2022-12-24T20:20:42.594Z,7.96
2022-12-24T20:21:42.455Z,8.02
2022-12-24T20:22:42.458Z,8.02
2022-12-24T20:23:42.341Z,8.03
2022-12-24T20:24:42.333Z,8.03
2022-12-24T20:25:42.355Z,8.08
2022-12-24T20:26:42.219Z,8.16
2022-12-24T20:27:42.216Z,8.16
2022-12-24T20:28:42.096Z,8.20
2022-12-24T20:29:42.101Z,8.17
2022-12-24T20:30:42.098Z,8.17
2022-12-24T20:31:42.059Z,8.38
2022-12-24T20:32:41.991Z,8.34
2022-12-24T20:33:42.342Z,8.35
2022-12-24T20:34:41.866Z,8.36
2022-12-24T20:35:41.866Z,8.35
2022-12-24T20:36:41.771Z,8.39
2022-12-24T20:37:45.972Z,8.44
2022-12-24T20:38:41.627Z,8.42
2022-12-24T20:39:41.632Z,8.52
2022-12-24T20:40:41.633Z,8.46
2022-12-24T20:41:41.530Z,8.54
2022-12-24T20:42:41.530Z,8.57
2022-12-24T20:43:47.427Z,8.63
2022-12-24T20:44:41.635Z,8.68
2022-12-24T20:45:41.465Z,8.64
2022-12-24T20:46:41.275Z,8.66
2022-12-24T20:47:41.289Z,8.69
2022-12-24T20:48:41.276Z,8.68
2022-12-24T20:49:41.281Z,8.69
2022-12-24T20:50:41.173Z,8.71
2022-12-24T20:51:41.048Z,8.64
2022-12-24T20:52:41.051Z,8.71
2022-12-24T20:53:41.082Z,8.68
2022-12-24T20:54:40.925Z,8.69
2022-12-24T20:55:40.921Z,8.71
2022-12-24T20:56:40.821Z,8.74
2022-12-24T20:57:40.818Z,8.68
2022-12-24T20:58:40.740Z,8.66
2022-12-24T20:59:40.621Z,8.69
2022-12-24T21:00:40.618Z,8.63
2022-12-24T21:01:40.727Z,8.66
2022-12-24T21:02:40.630Z,8.64
2022-12-24T21:03:40.542Z,8.78
2022-12-24T21:04:40.378Z,8.72
2022-12-24T21:05:40.382Z,8.69
2022-12-24T21:06:40.380Z,8.68
2022-12-24T21:07:40.267Z,8.71
2022-12-24T21:08:40.280Z,8.74
2022-12-24T21:09:40.143Z,8.71
2022-12-24T21:10:40.146Z,8.64
2022-12-24T21:11:40.146Z,8.68
2022-12-24T21:12:40.026Z,8.66
2022-12-24T21:13:40.028Z,8.69
2022-12-24T21:14:40.034Z,8.72
2022-12-24T21:15:39.941Z,8.72
2022-12-24T21:16:40.026Z,8.72
2022-12-24T21:17:39.787Z,8.66
2022-12-24T21:18:39.783Z,8.72
2022-12-24T21:19:39.788Z,8.79
2022-12-24T21:20:39.665Z,8.78
2022-12-24T21:21:39.676Z,8.74
2022-12-24T21:22:39.556Z,8.77
2022-12-24T21:23:39.552Z,8.72
2022-12-24T21:24:39.566Z,8.81
2022-12-24T21:25:39.427Z,8.72
2022-12-24T21:26:39.424Z,8.86
2022-12-24T21:27:39.429Z,8.84
2022-12-24T21:28:39.320Z,8.92
2022-12-24T21:29:39.312Z,8.92
2022-12-24T21:30:39.316Z,8.93
2022-12-24T21:31:39.202Z,8.93
2022-12-24T21:32:39.200Z,8.97
2022-12-24T21:33:39.103Z,8.92
2022-12-24T21:34:39.082Z,8.97
2022-12-24T21:35:39.073Z,9.02
2022-12-24T21:36:38.971Z,9.05
2022-12-24T21:37:38.965Z,9.09
2022-12-24T21:38:38.841Z,9.15
2022-12-24T21:39:38.862Z,9.18
2022-12-24T21:40:38.865Z,9.21
2022-12-24T21:41:38.726Z,9.19
2022-12-24T21:42:38.723Z,9.24
2022-12-24T21:43:38.702Z,9.29
2022-12-24T21:44:38.610Z,9.31
2022-12-24T21:45:38.657Z,9.33
2022-12-24T21:46:38.600Z,9.36
2022-12-24T21:47:38.490Z,9.34
2022-12-24T21:48:38.487Z,9.31
2022-12-24T21:49:38.373Z,9.40
2022-12-24T21:50:38.370Z,9.37
2022-12-24T21:51:38.340Z,9.44
2022-12-24T21:52:38.253Z,9.47
2022-12-24T21:53:38.256Z,9.51
2022-12-24T21:54:38.151Z,9.47
2022-12-24T21:55:38.144Z,9.47
2022-12-24T21:56:38.152Z,9.45
2022-12-24T21:57:38.030Z,9.56
2022-12-24T21:58:38.027Z,9.52
2022-12-24T21:59:38.004Z,9.51
2022-12-24T22:00:37.900Z,9.56
2022-12-24T22:01:38.034Z,9.69
2022-12-24T22:02:38.057Z,9.62
2022-12-24T22:03:37.851Z,9.55
2022-12-24T22:04:37.786Z,9.59
2022-12-24T22:05:37.671Z,9.56
2022-12-24T22:06:37.673Z,9.66
2022-12-24T22:07:37.555Z,9.67
2022-12-24T22:08:37.551Z,9.59
2022-12-24T22:09:37.547Z,9.69
2022-12-24T22:10:37.442Z,9.66
2022-12-24T22:11:37.528Z,9.73
2022-12-24T22:12:37.457Z,9.63
2022-12-24T22:13:37.402Z,9.70
2022-12-24T22:14:37.403Z,9.73
2022-12-24T22:15:37.288Z,9.63
2022-12-24T22:16:37.395Z,9.69
2022-12-24T22:17:37.291Z,9.76
2022-12-24T22:18:37.170Z,9.74
2022-12-24T22:19:37.171Z,9.76
2022-12-24T22:20:37.167Z,9.77
2022-12-24T22:21:37.059Z,9.70
2022-12-24T22:22:37.053Z,9.76
2022-12-24T22:23:42.056Z,9.72
2022-12-24T22:24:36.949Z,9.82
2022-12-24T22:25:36.946Z,9.81
2022-12-24T22:26:36.820Z,9.72
2022-12-24T22:27:36.817Z,9.72
2022-12-24T22:28:36.848Z,9.76
2022-12-24T22:29:36.706Z,9.72
2022-12-24T22:30:36.757Z,9.81
2022-12-24T22:31:36.661Z,9.81
2022-12-24T22:32:36.582Z,9.81
2022-12-24T22:33:36.583Z,9.80
2022-12-24T22:34:36.464Z,9.77
2022-12-24T22:35:36.467Z,9.77
2022-12-24T22:36:36.594Z,9.80
2022-12-24T22:37:36.591Z,9.74
2022-12-24T22:38:36.356Z,9.80
2022-12-24T22:39:36.229Z,9.84
2022-12-24T22:40:36.240Z,9.82
2022-12-24T22:41:36.234Z,9.72
2022-12-24T22:42:36.239Z,9.74
2022-12-24T22:43:36.233Z,9.84
2022-12-24T22:44:36.269Z,9.80
2022-12-24T22:45:36.237Z,9.74
2022-12-24T22:46:36.244Z,9.74
2022-12-24T22:47:36.121Z,9.85
2022-12-24T22:48:36.120Z,9.77
2022-12-24T22:49:36.032Z,9.74
2022-12-24T22:50:36.001Z,9.74
2022-12-24T22:51:35.922Z,9.74
2022-12-24T22:52:35.911Z,9.82
2022-12-24T22:53:35.648Z,9.73
2022-12-24T22:54:35.560Z,9.72
2022-12-24T22:55:35.767Z,9.82
2022-12-24T22:56:40.772Z,9.76
2022-12-24T22:57:35.408Z,9.74
2022-12-24T22:58:35.411Z,9.74
2022-12-24T22:59:35.556Z,9.70
2022-12-24T23:00:35.317Z,9.76
2022-12-24T23:01:35.447Z,9.74
2022-12-24T23:02:35.575Z,9.74
2022-12-24T23:03:35.274Z,9.70
2022-12-24T23:04:35.071Z,9.64
2022-12-24T23:05:35.682Z,9.66
2022-12-24T23:06:35.059Z,9.62
2022-12-24T23:07:35.182Z,9.63
2022-12-24T23:08:34.961Z,9.73
2022-12-24T23:09:35.305Z,9.69
2022-12-24T23:10:35.305Z,9.63
2022-12-24T23:11:34.841Z,9.67
2022-12-24T23:12:35.183Z,9.64
2022-12-24T23:13:34.710Z,9.67
2022-12-24T23:14:34.725Z,9.58
2022-12-24T23:15:34.625Z,9.54
2022-12-24T23:16:34.611Z,9.64
2022-12-24T23:17:34.589Z,9.72
2022-12-24T23:18:34.471Z,9.70
2022-12-24T23:19:34.470Z,9.62
2022-12-24T23:20:34.645Z,9.66
2022-12-24T23:21:34.369Z,9.70
2022-12-24T23:22:34.360Z,9.70
2022-12-24T23:23:37.088Z,9.64
2022-12-24T23:24:34.356Z,9.70
2022-12-24T23:25:34.120Z,9.67
2022-12-24T23:26:34.136Z,9.63
2022-12-24T23:27:34.122Z,9.59
2022-12-24T23:28:34.124Z,9.67
2022-12-24T23:29:34.247Z,9.62
2022-12-24T23:30:34.004Z,9.67
2022-12-24T23:31:33.938Z,9.56
2022-12-24T23:32:33.886Z,9.69
2022-12-24T23:33:33.765Z,9.56
2022-12-24T23:34:33.764Z,9.63
2022-12-24T23:35:33.765Z,9.64
2022-12-24T23:36:34.180Z,9.64
2022-12-24T23:37:35.440Z,9.66
2022-12-24T23:38:33.705Z,9.69
2022-12-24T23:39:33.790Z,9.66
2022-12-24T23:41:33.345Z,9.62
2022-12-24T23:42:33.348Z,9.66
2022-12-24T23:43:33.347Z,9.67
2022-12-24T23:44:33.238Z,9.67
2022-12-24T23:45:33.229Z,9.67
2022-12-24T23:46:33.150Z,9.56
2022-12-24T23:47:33.107Z,9.66
2022-12-24T23:48:33.150Z,9.67
2022-12-24T23:49:32.987Z,9.54
2022-12-24T23:50:32.988Z,9.62
2022-12-24T23:51:32.966Z,9.69
2022-12-24T23:52:32.873Z,9.62
2022-12-24T23:53:32.868Z,9.64
2022-12-24T23:54:32.780Z,9.67
2022-12-24T23:55:32.752Z,9.69
2022-12-24T23:56:32.770Z,9.67
2022-12-24T23:57:32.634Z,9.58
2022-12-24T23:58:32.641Z,9.58
2022-12-24T23:59:32.516Z,9.63
